sensor_id;sensor_type;location;lat;lon;timestamp;pressure;altitude;pressure_sealevel;temperature;humidity
59110;BME280;44895;47.438;18.978;2023-04-22T00:01:48;99890.69;;;9.10;100.00
59110;BME280;44895;47.438;18.978;2023-04-22T00:04:51;99875.47;;;9.14;100.00
59110;BME280;44895;47.438;18.978;2023-04-22T00:07:55;99893.03;;;9.17;100.00
59110;BME280;44895;47.438;18.978;2023-04-22T00:10:59;99880.81;;;8.71;100.00
59110;BME280;44895;47.438;18.978;2023-04-22T00:14:03;99887.09;;;8.90;100.00
59110;BME280;44895;47.438;18.978;2023-04-22T00:17:07;99883.47;;;9.00;100.00
59110;BME280;44895;47.438;18.978;2023-04-22T00:20:11;99877.13;;;9.10;100.00
59110;BME280;44895;47.438;18.978;2023-04-22T00:23:14;99887.69;;;9.11;100.00
59110;BME280;44895;47.438;18.978;2023-04-22T00:26:18;99885.88;;;9.26;100.00
59110;BME280;44895;47.438;18.978;2023-04-22T00:29:22;99885.88;;;9.26;100.00
59110;BME280;44895;47.438;18.978;2023-04-22T00:32:25;99893.34;;;9.15;100.00
59110;BME280;44895;47.438;18.978;2023-04-22T00:35:29;99888.72;;;9.16;100.00
59110;BME280;44895;47.438;18.978;2023-04-22T00:38:33;99887.44;;;9.08;100.00
59110;BME280;44895;47.438;18.978;2023-04-22T00:41:40;99883.19;;;9.02;100.00
59110;BME280;44895;47.438;18.978;2023-04-22T00:44:45;99883.88;;;8.88;100.00
59110;BME280;44895;47.438;18.978;2023-04-22T00:47:51;99882.38;;;9.01;100.00
59110;BME280;44895;47.438;18.978;2023-04-22T00:50:54;99890.38;;;9.11;100.00
59110;BME280;44895;47.438;18.978;2023-04-22T00:53:58;99883.53;;;9.19;100.00
59110;BME280;44895;47.438;18.978;2023-04-22T00:57:04;99883.28;;;8.91;100.00
59110;BME280;44895;47.438;18.978;2023-04-22T01:00:08;99884.91;;;8.92;100.00
59110;BME280;44895;47.438;18.978;2023-04-22T01:03:13;99886.25;;;8.95;100.00
59110;BME280;44895;47.438;18.978;2023-04-22T01:06:21;99881.88;;;8.70;100.00
59110;BME280;44895;47.438;18.978;2023-04-22T01:09:26;99881.53;;;8.76;100.00
59110;BME280;44895;47.438;18.978;2023-04-22T01:12:30;99880.94;;;8.85;100.00
59110;BME280;44895;47.438;18.978;2023-04-22T01:15:34;99887.50;;;9.03;100.00
59110;BME280;44895;47.438;18.978;2023-04-22T01:18:38;99891.47;;;8.86;100.00
59110;BME280;44895;47.438;18.978;2023-04-22T01:21:42;99894.28;;;8.76;100.00
59110;BME280;44895;47.438;18.978;2023-04-22T01:24:47;99890.53;;;8.72;100.00
59110;BME280;44895;47.438;18.978;2023-04-22T01:27:52;99890.84;;;8.65;100.00
59110;BME280;44895;47.438;18.978;2023-04-22T01:30:56;99897.50;;;8.48;100.00
59110;BME280;44895;47.438;18.978;2023-04-22T01:34:00;99904.38;;;8.30;100.00
59110;BME280;44895;47.438;18.978;2023-04-22T01:37:05;99904.28;;;8.06;100.00
59110;BME280;44895;47.438;18.978;2023-04-22T01:40:10;99901.50;;;8.16;100.00
59110;BME280;44895;47.438;18.978;2023-04-22T01:43:13;99904.75;;;8.19;100.00
59110;BME280;44895;47.438;18.978;2023-04-22T01:46:17;99906.59;;;8.23;100.00
59110;BME280;44895;47.438;18.978;2023-04-22T01:49:22;99899.69;;;8.07;100.00
59110;BME280;44895;47.438;18.978;2023-04-22T01:52:27;99908.34;;;8.09;100.00
59110;BME280;44895;47.438;18.978;2023-04-22T01:55:31;99906.97;;;8.11;100.00
59110;BME280;44895;47.438;18.978;2023-04-22T01:58:38;99901.09;;;7.49;100.00
59110;BME280;44895;47.438;18.978;2023-04-22T02:01:42;99906.88;;;7.82;100.00
59110;BME280;44895;47.438;18.978;2023-04-22T02:04:46;99903.91;;;7.83;100.00
59110;BME280;44895;47.438;18.978;2023-04-22T02:07:51;99884.75;;;7.75;100.00
59110;BME280;44895;47.438;18.978;2023-04-22T02:10:55;99889.41;;;7.69;100.00
59110;BME280;44895;47.438;18.978;2023-04-22T02:14:03;99892.34;;;7.73;100.00
59110;BME280;44895;47.438;18.978;2023-04-22T02:17:07;99891.16;;;7.34;100.00
59110;BME280;44895;47.438;18.978;2023-04-22T02:20:11;99898.13;;;7.50;100.00
59110;BME280;44895;47.438;18.978;2023-04-22T02:23:15;99893.78;;;7.55;100.00
59110;BME280;44895;47.438;18.978;2023-04-22T02:26:19;99897.94;;;7.31;100.00
59110;BME280;44895;47.438;18.978;2023-04-22T02:29:23;99894.72;;;7.19;100.00
59110;BME280;44895;47.438;18.978;2023-04-22T02:32:27;99897.66;;;7.33;100.00
59110;BME280;44895;47.438;18.978;2023-04-22T02:35:31;99899.28;;;7.29;100.00
59110;BME280;44895;47.438;18.978;2023-04-22T02:38:34;99887.50;;;6.99;100.00
59110;BME280;44895;47.438;18.978;2023-04-22T02:41:38;99897.56;;;6.78;100.00
59110;BME280;44895;47.438;18.978;2023-04-22T02:44:42;99896.97;;;6.96;100.00
59110;BME280;44895;47.438;18.978;2023-04-22T02:47:46;99893.56;;;7.41;100.00
59110;BME280;44895;47.438;18.978;2023-04-22T02:50:49;99887.91;;;7.37;100.00
59110;BME280;44895;47.438;18.978;2023-04-22T02:53:53;99893.09;;;7.18;100.00
59110;BME280;44895;47.438;18.978;2023-04-22T02:56:57;99885.00;;;7.28;100.00
59110;BME280;44895;47.438;18.978;2023-04-22T03:00:01;99887.66;;;7.33;100.00
59110;BME280;44895;47.438;18.978;2023-04-22T03:03:05;99892.28;;;7.23;100.00
59110;BME280;44895;47.438;18.978;2023-04-22T03:06:11;99897.69;;;7.28;100.00
59110;BME280;44895;47.438;18.978;2023-04-22T03:09:15;99893.63;;;7.25;100.00
59110;BME280;44895;47.438;18.978;2023-04-22T03:12:20;99888.44;;;7.39;100.00
59110;BME280;44895;47.438;18.978;2023-04-22T03:15:24;99893.22;;;7.58;100.00
59110;BME280;44895;47.438;18.978;2023-04-22T03:18:27;99900.25;;;7.54;100.00
59110;BME280;44895;47.438;18.978;2023-04-22T03:21:31;99903.28;;;7.47;100.00
59110;BME280;44895;47.438;18.978;2023-04-22T03:24:36;99900.88;;;7.40;100.00
59110;BME280;44895;47.438;18.978;2023-04-22T03:27:43;99908.19;;;7.34;100.00
59110;BME280;44895;47.438;18.978;2023-04-22T03:30:47;99906.31;;;7.35;100.00
59110;BME280;44895;47.438;18.978;2023-04-22T03:33:51;99911.41;;;7.37;100.00
59110;BME280;44895;47.438;18.978;2023-04-22T03:37:01;99912.78;;;7.34;100.00
59110;BME280;44895;47.438;18.978;2023-04-22T03:40:06;99909.50;;;7.37;100.00
59110;BME280;44895;47.438;18.978;2023-04-22T03:43:10;99913.81;;;7.43;100.00
59110;BME280;44895;47.438;18.978;2023-04-22T03:46:14;99908.41;;;7.43;100.00
59110;BME280;44895;47.438;18.978;2023-04-22T03:49:25;99911.31;;;7.62;100.00
59110;BME280;44895;47.438;18.978;2023-04-22T03:52:28;99914.38;;;7.45;100.00
59110;BME280;44895;47.438;18.978;2023-04-22T03:55:35;99910.25;;;7.58;100.00
59110;BME280;44895;47.438;18.978;2023-04-22T03:58:39;99919.19;;;7.59;100.00
59110;BME280;44895;47.438;18.978;2023-04-22T04:01:46;99916.25;;;7.50;100.00
59110;BME280;44895;47.438;18.978;2023-04-22T04:04:50;99920.50;;;7.56;100.00
59110;BME280;44895;47.438;18.978;2023-04-22T04:07:55;99920.50;;;7.56;100.00
59110;BME280;44895;47.438;18.978;2023-04-22T04:11:00;99917.50;;;7.68;100.00
59110;BME280;44895;47.438;18.978;2023-04-22T04:14:04;99918.44;;;7.43;100.00
59110;BME280;44895;47.438;18.978;2023-04-22T04:17:15;99917.84;;;7.46;100.00
59110;BME280;44895;47.438;18.978;2023-04-22T04:20:19;99931.03;;;7.63;100.00
59110;BME280;44895;47.438;18.978;2023-04-22T04:23:23;99933.75;;;7.63;100.00
59110;BME280;44895;47.438;18.978;2023-04-22T04:26:29;99924.28;;;7.65;100.00
59110;BME280;44895;47.438;18.978;2023-04-22T04:29:42;99918.81;;;7.76;100.00
59110;BME280;44895;47.438;18.978;2023-04-22T04:32:51;99932.75;;;7.98;100.00
59110;BME280;44895;47.438;18.978;2023-04-22T04:35:56;99929.56;;;8.26;100.00
59110;BME280;44895;47.438;18.978;2023-04-22T04:39:05;99934.91;;;8.41;100.00
59110;BME280;44895;47.438;18.978;2023-04-22T04:42:12;99939.22;;;8.47;100.00
59110;BME280;44895;47.438;18.978;2023-04-22T04:45:25;99945.97;;;8.45;100.00
59110;BME280;44895;47.438;18.978;2023-04-22T04:48:31;99945.50;;;8.32;100.00
59110;BME280;44895;47.438;18.978;2023-04-22T04:51:43;99948.34;;;8.57;100.00
59110;BME280;44895;47.438;18.978;2023-04-22T04:54:46;99950.91;;;8.72;100.00
59110;BME280;44895;47.438;18.978;2023-04-22T04:57:50;99952.03;;;8.66;100.00
59110;BME280;44895;47.438;18.978;2023-04-22T05:00:54;99945.63;;;8.86;100.00
59110;BME280;44895;47.438;18.978;2023-04-22T05:03:57;99943.34;;;8.98;100.00
59110;BME280;44895;47.438;18.978;2023-04-22T05:07:01;99951.00;;;8.91;100.00
59110;BME280;44895;47.438;18.978;2023-04-22T05:10:07;99951.72;;;9.02;100.00
59110;BME280;44895;47.438;18.978;2023-04-22T05:13:10;99948.66;;;9.09;100.00
59110;BME280;44895;47.438;18.978;2023-04-22T05:16:17;99946.13;;;9.18;100.00
59110;BME280;44895;47.438;18.978;2023-04-22T05:19:21;99960.28;;;9.39;100.00
59110;BME280;44895;47.438;18.978;2023-04-22T05:22:25;99947.81;;;9.62;100.00
59110;BME280;44895;47.438;18.978;2023-04-22T05:25:29;99949.06;;;9.70;100.00
59110;BME280;44895;47.438;18.978;2023-04-22T05:28:40;99944.41;;;9.94;100.00
59110;BME280;44895;47.438;18.978;2023-04-22T05:31:43;99951.06;;;10.21;100.00
59110;BME280;44895;47.438;18.978;2023-04-22T05:34:47;99950.91;;;10.51;100.00
59110;BME280;44895;47.438;18.978;2023-04-22T05:37:51;99946.97;;;10.76;100.00
59110;BME280;44895;47.438;18.978;2023-04-22T05:40:54;99953.44;;;10.94;100.00
59110;BME280;44895;47.438;18.978;2023-04-22T05:43:58;99948.97;;;11.17;100.00
59110;BME280;44895;47.438;18.978;2023-04-22T05:47:02;99953.13;;;11.42;100.00
59110;BME280;44895;47.438;18.978;2023-04-22T05:50:07;99946.13;;;11.78;100.00
59110;BME280;44895;47.438;18.978;2023-04-22T05:53:19;99954.75;;;12.08;100.00
59110;BME280;44895;47.438;18.978;2023-04-22T05:56:23;99961.28;;;12.44;100.00
59110;BME280;44895;47.438;18.978;2023-04-22T05:59:27;99953.41;;;12.87;100.00
59110;BME280;44895;47.438;18.978;2023-04-22T06:02:31;99948.84;;;13.37;100.00
59110;BME280;44895;47.438;18.978;2023-04-22T06:05:35;99948.31;;;14.54;100.00
59110;BME280;44895;47.438;18.978;2023-04-22T06:08:39;99941.78;;;17.72;100.00
59110;BME280;44895;47.438;18.978;2023-04-22T06:11:43;99937.88;;;20.58;79.08
59110;BME280;44895;47.438;18.978;2023-04-22T06:14:46;99942.47;;;21.66;61.17
59110;BME280;44895;47.438;18.978;2023-04-22T06:17:50;99961.03;;;18.54;66.23
59110;BME280;44895;47.438;18.978;2023-04-22T06:20:53;99964.63;;;18.99;66.78
59110;BME280;44895;47.438;18.978;2023-04-22T06:23:59;99962.38;;;18.32;72.35
59110;BME280;44895;47.438;18.978;2023-04-22T06:27:04;99954.06;;;19.17;63.57
59110;BME280;44895;47.438;18.978;2023-04-22T06:30:08;99963.41;;;18.84;68.46
59110;BME280;44895;47.438;18.978;2023-04-22T06:33:14;99953.13;;;22.93;55.40
59110;BME280;44895;47.438;18.978;2023-04-22T06:36:18;99957.53;;;20.56;57.40
59110;BME280;44895;47.438;18.978;2023-04-22T06:39:28;99951.97;;;22.97;54.88
59110;BME280;44895;47.438;18.978;2023-04-22T06:42:44;99946.34;;;25.19;47.86
59110;BME280;44895;47.438;18.978;2023-04-22T06:46:16;99942.34;;;26.74;43.83
59110;BME280;44895;47.438;18.978;2023-04-22T06:49:28;99942.38;;;27.68;38.82
59110;BME280;44895;47.438;18.978;2023-04-22T06:52:54;99936.81;;;28.92;35.53
59110;BME280;44895;47.438;18.978;2023-04-22T06:55:58;99943.31;;;28.85;34.01
59110;BME280;44895;47.438;18.978;2023-04-22T06:59:02;99937.84;;;28.78;33.65
59110;BME280;44895;47.438;18.978;2023-04-22T07:02:06;99935.16;;;29.89;32.51
59110;BME280;44895;47.438;18.978;2023-04-22T07:05:14;99936.63;;;29.74;31.84
59110;BME280;44895;47.438;18.978;2023-04-22T07:08:19;99940.28;;;28.76;31.56
59110;BME280;44895;47.438;18.978;2023-04-22T07:11:23;99949.88;;;28.75;32.60
59110;BME280;44895;47.438;18.978;2023-04-22T07:14:45;99940.88;;;27.94;32.55
59110;BME280;44895;47.438;18.978;2023-04-22T07:17:49;99938.31;;;28.73;30.86
59110;BME280;44895;47.438;18.978;2023-04-22T07:20:53;99940.03;;;28.05;28.36
59110;BME280;44895;47.438;18.978;2023-04-22T07:23:57;99940.25;;;26.11;30.17
59110;BME280;44895;47.438;18.978;2023-04-22T07:27:00;99942.34;;;25.56;29.93
59110;BME280;44895;47.438;18.978;2023-04-22T07:30:08;99954.25;;;23.89;30.65
59110;BME280;44895;47.438;18.978;2023-04-22T07:33:12;99942.38;;;25.27;29.94
59110;BME280;44895;47.438;18.978;2023-04-22T07:36:16;99943.88;;;25.93;30.30
59110;BME280;44895;47.438;18.978;2023-04-22T07:39:21;99947.69;;;27.10;30.66
59110;BME280;44895;47.438;18.978;2023-04-22T07:42:24;99947.72;;;26.35;27.77
59110;BME280;44895;47.438;18.978;2023-04-22T07:45:28;99943.63;;;26.51;29.57
59110;BME280;44895;47.438;18.978;2023-04-22T07:48:32;99942.47;;;26.48;28.37
59110;BME280;44895;47.438;18.978;2023-04-22T07:51:35;99938.41;;;25.06;30.07
59110;BME280;44895;47.438;18.978;2023-04-22T07:54:39;99941.13;;;25.82;29.81
59110;BME280;44895;47.438;18.978;2023-04-22T07:57:43;99945.31;;;27.05;29.01
59110;BME280;44895;47.438;18.978;2023-04-22T08:00:47;99935.88;;;26.91;28.50
59110;BME280;44895;47.438;18.978;2023-04-22T08:03:50;99936.38;;;27.70;27.55
59110;BME280;44895;47.438;18.978;2023-04-22T08:06:54;99935.03;;;27.85;27.40
59110;BME280;44895;47.438;18.978;2023-04-22T08:10:00;99939.97;;;24.82;31.14
59110;BME280;44895;47.438;18.978;2023-04-22T08:13:03;99946.16;;;24.36;30.36
59110;BME280;44895;47.438;18.978;2023-04-22T08:16:07;99938.63;;;24.33;31.31
59110;BME280;44895;47.438;18.978;2023-04-22T08:19:11;99946.63;;;23.75;30.77
59110;BME280;44895;47.438;18.978;2023-04-22T08:22:15;99942.72;;;24.64;32.11
59110;BME280;44895;47.438;18.978;2023-04-22T08:25:20;99944.50;;;24.17;31.39
59110;BME280;44895;47.438;18.978;2023-04-22T08:28:24;99941.44;;;23.66;30.94
59110;BME280;44895;47.438;18.978;2023-04-22T08:31:28;99939.22;;;25.43;29.45
59110;BME280;44895;47.438;18.978;2023-04-22T08:34:31;99946.81;;;24.04;30.51
59110;BME280;44895;47.438;18.978;2023-04-22T08:37:35;99952.00;;;23.46;30.19
59110;BME280;44895;47.438;18.978;2023-04-22T08:40:40;99940.75;;;25.73;30.41
59110;BME280;44895;47.438;18.978;2023-04-22T08:43:45;99944.72;;;25.79;29.45
59110;BME280;44895;47.438;18.978;2023-04-22T08:46:50;99945.03;;;24.51;30.50
59110;BME280;44895;47.438;18.978;2023-04-22T08:49:54;99942.22;;;24.40;31.23
59110;BME280;44895;47.438;18.978;2023-04-22T08:52:59;99945.84;;;23.74;31.98
59110;BME280;44895;47.438;18.978;2023-04-22T08:56:04;99941.00;;;23.08;33.49
59110;BME280;44895;47.438;18.978;2023-04-22T08:59:12;99950.78;;;22.99;33.83
59110;BME280;44895;47.438;18.978;2023-04-22T09:02:19;99939.16;;;22.82;33.75
59110;BME280;44895;47.438;18.978;2023-04-22T09:05:25;99947.94;;;22.20;34.78
59110;BME280;44895;47.438;18.978;2023-04-22T09:08:31;99938.03;;;22.49;34.45
59110;BME280;44895;47.438;18.978;2023-04-22T09:11:35;99937.81;;;22.31;35.22
59110;BME280;44895;47.438;18.978;2023-04-22T09:14:38;99943.22;;;21.63;35.28
59110;BME280;44895;47.438;18.978;2023-04-22T09:17:42;99944.88;;;21.44;36.07
59110;BME280;44895;47.438;18.978;2023-04-22T09:20:47;99939.53;;;21.28;36.37
59110;BME280;44895;47.438;18.978;2023-04-22T09:23:53;99946.47;;;21.18;36.34
59110;BME280;44895;47.438;18.978;2023-04-22T09:26:57;99937.47;;;21.48;36.71
59110;BME280;44895;47.438;18.978;2023-04-22T09:30:07;99932.94;;;21.37;37.57
59110;BME280;44895;47.438;18.978;2023-04-22T09:33:11;99935.72;;;21.13;37.49
59110;BME280;44895;47.438;18.978;2023-04-22T09:36:26;99931.38;;;21.39;36.81
59110;BME280;44895;47.438;18.978;2023-04-22T09:39:30;99934.56;;;21.64;36.53
59110;BME280;44895;47.438;18.978;2023-04-22T09:42:55;99928.91;;;21.84;36.51
59110;BME280;44895;47.438;18.978;2023-04-22T09:46:00;99928.00;;;21.49;36.22
59110;BME280;44895;47.438;18.978;2023-04-22T09:49:04;99914.91;;;21.20;36.82
59110;BME280;44895;47.438;18.978;2023-04-22T09:52:08;99918.91;;;21.49;36.77
59110;BME280;44895;47.438;18.978;2023-04-22T09:55:13;99914.19;;;21.49;36.14
59110;BME280;44895;47.438;18.978;2023-04-22T09:58:19;99907.03;;;21.72;37.42
59110;BME280;44895;47.438;18.978;2023-04-22T10:01:34;99916.09;;;21.72;37.39
59110;BME280;44895;47.438;18.978;2023-04-22T10:04:38;99912.38;;;21.57;36.79
59110;BME280;44895;47.438;18.978;2023-04-22T10:07:41;99897.84;;;21.64;38.12
59110;BME280;44895;47.438;18.978;2023-04-22T10:10:45;99906.88;;;21.91;36.94
59110;BME280;44895;47.438;18.978;2023-04-22T10:13:49;99899.47;;;21.69;37.47
59110;BME280;44895;47.438;18.978;2023-04-22T10:16:56;99902.34;;;21.49;36.63
59110;BME280;44895;47.438;18.978;2023-04-22T10:20:03;99888.84;;;21.44;36.18
59110;BME280;44895;47.438;18.978;2023-04-22T10:23:17;99892.06;;;21.49;37.45
59110;BME280;44895;47.438;18.978;2023-04-22T10:26:42;99891.09;;;21.34;37.28
59110;BME280;44895;47.438;18.978;2023-04-22T10:29:46;99886.84;;;20.91;36.85
59110;BME280;44895;47.438;18.978;2023-04-22T10:32:49;99887.38;;;21.23;35.78
59110;BME280;44895;47.438;18.978;2023-04-22T10:36:18;99890.06;;;21.73;38.39
59110;BME280;44895;47.438;18.978;2023-04-22T10:39:23;99879.84;;;21.74;38.04
59110;BME280;44895;47.438;18.978;2023-04-22T10:42:27;99883.47;;;21.28;38.59
59110;BME280;44895;47.438;18.978;2023-04-22T10:45:31;99880.06;;;21.11;39.46
59110;BME280;44895;47.438;18.978;2023-04-22T10:48:49;99869.34;;;21.56;38.73
59110;BME280;44895;47.438;18.978;2023-04-22T10:51:55;99873.00;;;21.41;38.42
59110;BME280;44895;47.438;18.978;2023-04-22T10:55:01;99872.22;;;21.13;40.07
59110;BME280;44895;47.438;18.978;2023-04-22T10:58:21;99870.50;;;21.05;40.23
59110;BME280;44895;47.438;18.978;2023-04-22T11:01:27;99872.19;;;20.87;40.84
59110;BME280;44895;47.438;18.978;2023-04-22T11:04:31;99875.78;;;20.67;38.39
59110;BME280;44895;47.438;18.978;2023-04-22T11:07:35;99870.97;;;20.41;38.48
59110;BME280;44895;47.438;18.978;2023-04-22T11:10:43;99875.66;;;20.41;39.13
59110;BME280;44895;47.438;18.978;2023-04-22T11:13:47;99878.88;;;20.43;39.51
59110;BME280;44895;47.438;18.978;2023-04-22T11:16:53;99870.13;;;20.37;38.62
59110;BME280;44895;47.438;18.978;2023-04-22T11:19:58;99865.75;;;20.36;38.80
59110;BME280;44895;47.438;18.978;2023-04-22T11:23:02;99867.41;;;20.41;40.17
59110;BME280;44895;47.438;18.978;2023-04-22T11:26:06;99872.81;;;20.33;38.83
59110;BME280;44895;47.438;18.978;2023-04-22T11:29:10;99866.63;;;20.40;39.79
59110;BME280;44895;47.438;18.978;2023-04-22T11:32:13;99870.13;;;20.37;41.75
59110;BME280;44895;47.438;18.978;2023-04-22T11:35:23;99866.53;;;20.36;39.95
59110;BME280;44895;47.438;18.978;2023-04-22T11:38:27;99863.28;;;20.31;41.14
59110;BME280;44895;47.438;18.978;2023-04-22T11:41:31;99872.16;;;20.20;41.38
59110;BME280;44895;47.438;18.978;2023-04-22T11:44:35;99873.09;;;20.09;40.60
59110;BME280;44895;47.438;18.978;2023-04-22T11:47:40;99877.53;;;20.13;43.01
59110;BME280;44895;47.438;18.978;2023-04-22T11:50:44;99869.41;;;20.20;44.13
59110;BME280;44895;47.438;18.978;2023-04-22T11:55:43;99872.16;;;20.20;42.54
59110;BME280;44895;47.438;18.978;2023-04-22T11:58:48;99868.75;;;20.08;43.15
59110;BME280;44895;47.438;18.978;2023-04-22T12:01:51;99869.78;;;19.99;42.42
59110;BME280;44895;47.438;18.978;2023-04-22T12:04:57;99869.31;;;19.97;43.87
59110;BME280;44895;47.438;18.978;2023-04-22T12:08:03;99866.56;;;19.97;43.84
59110;BME280;44895;47.438;18.978;2023-04-22T12:11:07;99863.16;;;19.84;43.96
59110;BME280;44895;47.438;18.978;2023-04-22T12:14:13;99859.34;;;19.73;42.95
59110;BME280;44895;47.438;18.978;2023-04-22T12:17:22;99860.56;;;19.92;43.36
59110;BME280;44895;47.438;18.978;2023-04-22T12:20:31;99857.94;;;20.18;40.00
59110;BME280;44895;47.438;18.978;2023-04-22T12:23:56;99858.41;;;20.44;40.87
59110;BME280;44895;47.438;18.978;2023-04-22T12:27:00;99849.22;;;20.59;39.37
59110;BME280;44895;47.438;18.978;2023-04-22T12:30:04;99850.44;;;20.62;40.76
59110;BME280;44895;47.438;18.978;2023-04-22T12:33:08;99848.59;;;20.46;39.42
59110;BME280;44895;47.438;18.978;2023-04-22T12:36:12;99845.31;;;20.17;39.48
59110;BME280;44895;47.438;18.978;2023-04-22T12:39:16;99854.38;;;19.98;38.28
59110;BME280;44895;47.438;18.978;2023-04-22T12:42:21;99843.44;;;19.82;37.83
59110;BME280;44895;47.438;18.978;2023-04-22T12:45:25;99843.53;;;20.06;39.30
59110;BME280;44895;47.438;18.978;2023-04-22T12:48:28;99842.44;;;19.91;40.50
59110;BME280;44895;47.438;18.978;2023-04-22T12:51:32;99851.06;;;19.89;40.38
59110;BME280;44895;47.438;18.978;2023-04-22T12:54:36;99833.78;;;19.92;40.22
59110;BME280;44895;47.438;18.978;2023-04-22T12:57:40;99834.66;;;19.96;40.98
59110;BME280;44895;47.438;18.978;2023-04-22T13:00:43;99824.19;;;20.25;39.57
59110;BME280;44895;47.438;18.978;2023-04-22T13:03:47;99824.81;;;20.38;38.76
59110;BME280;44895;47.438;18.978;2023-04-22T13:06:55;99821.78;;;20.43;38.09
59110;BME280;44895;47.438;18.978;2023-04-22T13:09:59;99824.22;;;20.48;38.94
59110;BME280;44895;47.438;18.978;2023-04-22T13:13:02;99823.28;;;20.41;39.11
59110;BME280;44895;47.438;18.978;2023-04-22T13:16:06;99815.50;;;20.46;39.18
59110;BME280;44895;47.438;18.978;2023-04-22T13:19:10;99823.81;;;20.27;39.00
59110;BME280;44895;47.438;18.978;2023-04-22T13:22:15;99821.94;;;20.31;40.08
59110;BME280;44895;47.438;18.978;2023-04-22T13:25:19;99822.03;;;20.15;38.81
59110;BME280;44895;47.438;18.978;2023-04-22T13:28:23;99814.56;;;20.15;40.00
59110;BME280;44895;47.438;18.978;2023-04-22T13:31:27;99810.94;;;20.11;38.58
59110;BME280;44895;47.438;18.978;2023-04-22T13:34:31;99807.63;;;20.02;39.05
59110;BME280;44895;47.438;18.978;2023-04-22T13:37:35;99804.84;;;20.02;38.99
59110;BME280;44895;47.438;18.978;2023-04-22T13:40:38;99808.31;;;20.18;38.14
59110;BME280;44895;47.438;18.978;2023-04-22T13:43:42;99801.47;;;20.32;37.65
59110;BME280;44895;47.438;18.978;2023-04-22T13:46:46;99805.69;;;20.26;39.39
59110;BME280;44895;47.438;18.978;2023-04-22T13:49:49;99796.38;;;20.34;38.83
59110;BME280;44895;47.438;18.978;2023-04-22T13:52:53;99790.81;;;20.53;38.89
59110;BME280;44895;47.438;18.978;2023-04-22T13:55:57;99793.69;;;20.61;38.81
59110;BME280;44895;47.438;18.978;2023-04-22T13:59:01;99797.50;;;20.52;37.03
59110;BME280;44895;47.438;18.978;2023-04-22T14:02:05;99790.31;;;20.48;37.78
59110;BME280;44895;47.438;18.978;2023-04-22T14:05:08;99787.59;;;20.71;38.29
59110;BME280;44895;47.438;18.978;2023-04-22T14:08:13;99785.44;;;20.84;38.01
59110;BME280;44895;47.438;18.978;2023-04-22T14:11:17;99779.28;;;20.94;37.44
59110;BME280;44895;47.438;18.978;2023-04-22T14:14:20;99782.13;;;21.01;37.24
59110;BME280;44895;47.438;18.978;2023-04-22T14:17:24;99783.13;;;20.90;38.62
59110;BME280;44895;47.438;18.978;2023-04-22T14:20:29;99782.97;;;20.79;38.69
59110;BME280;44895;47.438;18.978;2023-04-22T14:23:38;99787.22;;;20.73;38.61
59110;BME280;44895;47.438;18.978;2023-04-22T14:26:42;99785.31;;;20.53;36.82
59110;BME280;44895;47.438;18.978;2023-04-22T14:29:46;99785.78;;;20.59;38.35
59110;BME280;44895;47.438;18.978;2023-04-22T14:32:49;99774.59;;;20.48;38.22
59110;BME280;44895;47.438;18.978;2023-04-22T14:35:53;99783.41;;;20.58;37.87
59110;BME280;44895;47.438;18.978;2023-04-22T14:38:56;99771.19;;;20.59;40.15
59110;BME280;44895;47.438;18.978;2023-04-22T14:42:00;99782.09;;;20.51;40.19
59110;BME280;44895;47.438;18.978;2023-04-22T14:45:05;99774.94;;;20.24;38.32
59110;BME280;44895;47.438;18.978;2023-04-22T14:48:09;99769.97;;;20.33;38.66
59110;BME280;44895;47.438;18.978;2023-04-22T14:51:13;99775.59;;;20.40;40.09
59110;BME280;44895;47.438;18.978;2023-04-22T14:54:17;99772.00;;;20.36;40.81
59110;BME280;44895;47.438;18.978;2023-04-22T14:57:20;99773.59;;;20.37;40.36
59110;BME280;44895;47.438;18.978;2023-04-22T15:00:25;99771.56;;;20.34;40.27
59110;BME280;44895;47.438;18.978;2023-04-22T15:03:29;99776.66;;;20.32;39.83
59110;BME280;44895;47.438;18.978;2023-04-22T15:06:33;99770.47;;;20.15;37.60
59110;BME280;44895;47.438;18.978;2023-04-22T15:09:37;99773.25;;;20.19;40.74
59110;BME280;44895;47.438;18.978;2023-04-22T15:12:41;99771.56;;;20.11;38.32
59110;BME280;44895;47.438;18.978;2023-04-22T15:15:45;99772.03;;;20.16;38.73
59110;BME280;44895;47.438;18.978;2023-04-22T15:18:49;99773.72;;;20.21;42.75
59110;BME280;44895;47.438;18.978;2023-04-22T15:21:53;99775.22;;;20.18;40.04
59110;BME280;44895;47.438;18.978;2023-04-22T15:24:56;99774.69;;;20.09;39.43
59110;BME280;44895;47.438;18.978;2023-04-22T15:28:00;99768.25;;;20.01;39.79
59110;BME280;44895;47.438;18.978;2023-04-22T15:31:04;99765.84;;;20.00;39.33
59110;BME280;44895;47.438;18.978;2023-04-22T15:34:07;99768.19;;;19.98;39.58
59110;BME280;44895;47.438;18.978;2023-04-22T15:37:11;99770.53;;;19.80;38.27
59110;BME280;44895;47.438;18.978;2023-04-22T15:40:17;99764.38;;;19.67;39.95
59110;BME280;44895;47.438;18.978;2023-04-22T15:43:21;99772.56;;;19.63;39.11
59110;BME280;44895;47.438;18.978;2023-04-22T15:46:26;99772.25;;;19.65;39.55
59110;BME280;44895;47.438;18.978;2023-04-22T15:49:30;99774.09;;;19.61;42.06
59110;BME280;44895;47.438;18.978;2023-04-22T15:52:35;99768.16;;;19.59;38.63
59110;BME280;44895;47.438;18.978;2023-04-22T15:55:40;99773.75;;;19.62;39.55
59110;BME280;44895;47.438;18.978;2023-04-22T15:58:43;99776.06;;;19.60;39.69
59110;BME280;44895;47.438;18.978;2023-04-22T16:01:48;99766.13;;;19.75;39.08
59110;BME280;44895;47.438;18.978;2023-04-22T16:04:51;99762.38;;;19.83;38.55
59110;BME280;44895;47.438;18.978;2023-04-22T16:07:56;99770.50;;;19.76;38.37
59110;BME280;44895;47.438;18.978;2023-04-22T16:11:00;99755.81;;;19.72;38.66